Time;durP1;ratioP1;P1;durP2;ratioP2;P2;SDS_P1;SDS_P2;PMS_P1;PMS_P2;Temp;Humidity;BMP_temperature;BMP_pressure;BME280_temperature;BME280_humidity;BME280_pressure;Samples;Min_cycle;Max_cycle;Signal;HPM_P1;HPM_P2
2021/12/16 00:03:44;;;;;;;14.75;9.48;;;;;;;9.76;92.18;101612.92;2940385;81;21067;-69
2021/12/16 00:07:20;;;;;;;15.00;11.65;;;;;;;9.78;92.10;101595.92;2941104;79;21084;-69
2021/12/16 00:11:36;;;;;;;14.73;10.82;;;;;;;9.74;92.19;101602.86;2942668;80;20996;-69
2021/12/16 00:20:11;;;;;;;16.30;11.38;;;;;;;9.71;92.35;101595.91;2941246;79;21071;-69
2021/12/16 00:35:51;;;;;;;12.70;9.85;;;;;;;9.62;92.81;101597.74;2943462;80;20981;-69
2021/12/16 00:39:53;;;;;;;11.63;9.23;;;;;;;9.61;92.77;101593.37;2944087;80;21007;-70
2021/12/16 00:48:02;;;;;;;14.87;10.53;;;;;;;9.54;93.06;101597.72;2940846;79;20996;-69
2021/12/16 00:56:15;;;;;;;14.90;10.15;;;;;;;9.50;93.24;101597.52;2941223;81;21095;-69
2021/12/16 01:00:17;;;;;;;18.73;9.08;;;;;;;9.49;93.51;101596.26;2957310;80;21437;-69
2021/12/16 01:08:49;;;;;;;8.40;7.60;;;;;;;9.50;93.49;101586.89;2980138;80;20972;-69
2021/12/16 02:01:32;;;;;;;9.78;7.50;;;;;;;9.61;91.47;101558.38;2979671;78;21016;-69
2021/12/16 02:09:44;;;;;;;10.68;6.42;;;;;;;9.63;91.19;101565.79;2976784;80;20984;-69
2021/12/16 02:38:18;;;;;;;8.78;6.65;;;;;;;9.65;89.73;101563.05;2885042;82;21017;-69
2021/12/16 02:42:33;;;;;;;8.40;7.37;;;;;;;9.69;89.42;101568.57;2886586;82;21028;-69
2021/12/16 02:50:32;;;;;;;9.05;6.92;;;;;;;9.72;89.06;101563.91;2908765;81;20990;-69
2021/12/16 02:54:34;;;;;;;10.15;8.53;;;;;;;9.73;88.96;101562.13;2919439;80;21013;-69
2021/12/16 02:58:40;;;;;;;11.48;7.42;;;;;;;9.76;88.92;101566.42;2922162;81;21030;-69
2021/12/16 03:02:47;;;;;;;20.30;8.70;;;;;;;9.77;88.75;101574.28;2923136;81;21065;-69
2021/12/16 03:06:53;;;;;;;10.78;7.62;;;;;;;9.77;88.63;101574.28;2922872;81;21006;-69
2021/12/16 03:15:09;;;;;;;11.75;9.48;;;;;;;9.72;88.93;101573.70;2922854;81;21009;-69
2021/12/16 03:39:25;;;;;;;18.23;12.37;;;;;;;9.24;91.40;101613.56;2919391;81;21558;-69
2021/12/16 03:43:29;;;;;;;17.95;11.40;;;;;;;9.21;91.89;101617.72;2923106;81;21442;-69
2021/12/16 03:47:36;;;;;;;13.22;11.43;;;;;;;9.11;92.08;101603.61;2922921;81;21060;-69
2021/12/16 03:51:42;;;;;;;13.62;10.00;;;;;;;9.08;92.63;101613.07;2922460;81;21104;-69
2021/12/16 03:55:47;;;;;;;15.40;11.70;;;;;;;9.07;92.38;101621.14;2919164;81;21073;-69
2021/12/16 03:59:51;;;;;;;17.82;12.30;;;;;;;9.02;92.57;101624.48;2922540;80;21176;-69
2021/12/16 04:03:53;;;;;;;12.82;10.48;;;;;;;8.95;92.74;101630.63;2917026;81;21002;-69
2021/12/16 04:07:55;;;;;;;14.78;11.78;;;;;;;8.98;92.86;101624.66;2916887;81;21026;-69
2021/12/16 04:12:07;;;;;;;14.55;11.20;;;;;;;9.02;92.73;101620.05;2916795;81;21124;-68
2021/12/16 04:15:59;;;;;;;20.12;13.13;;;;;;;8.98;92.97;101618.02;2914480;81;21025;-71
2021/12/16 04:20:06;;;;;;;15.55;10.78;;;;;;;9.06;92.41;101606.99;2915739;81;21068;-71
2021/12/16 04:24:09;;;;;;;18.90;12.88;;;;;;;9.00;92.62;101612.16;2915211;81;21053;-71
2021/12/16 04:28:16;;;;;;;17.70;13.25;;;;;;;8.98;93.00;101609.22;2915726;81;21021;-71
2021/12/16 04:32:18;;;;;;;19.23;13.78;;;;;;;8.99;93.18;101606.46;2915501;81;21042;-72
2021/12/16 04:36:20;;;;;;;19.15;14.15;;;;;;;9.00;93.27;101606.84;2915917;81;21030;-72
2021/12/16 04:40:21;;;;;;;21.02;15.43;;;;;;;9.03;93.35;101607.16;2915824;81;21053;-72
2021/12/16 04:44:26;;;;;;;18.07;13.78;;;;;;;9.08;93.00;101608.25;2915853;81;21093;-70
2021/12/16 04:48:28;;;;;;;17.60;13.60;;;;;;;9.05;93.05;101605.28;2916089;81;21021;-71
2021/12/16 04:52:29;;;;;;;21.40;14.73;;;;;;;9.07;92.94;101611.84;2916176;81;21025;-71
2021/12/16 04:56:33;;;;;;;21.20;15.00;;;;;;;9.11;92.85;101612.06;2916135;81;21040;-71
2021/12/16 05:00:34;;;;;;;17.70;13.22;;;;;;;9.06;92.87;101599.52;2915642;81;21041;-72
2021/12/16 05:04:37;;;;;;;18.65;15.60;;;;;;;9.07;93.00;101609.19;2916867;81;21038;-69
2021/12/16 05:08:39;;;;;;;17.92;14.23;;;;;;;9.06;93.14;101604.34;2917036;81;21038;-71
2021/12/16 05:12:46;;;;;;;20.12;14.53;;;;;;;8.98;93.88;101612.72;2916914;81;21041;-70
2021/12/16 05:16:47;;;;;;;21.93;13.83;;;;;;;8.97;94.46;101603.04;2915809;81;21006;-70
2021/12/16 05:20:49;;;;;;;21.85;15.78;;;;;;;8.97;94.39;101596.41;2917063;81;20935;-70
2021/12/16 05:24:53;;;;;;;26.90;16.07;;;;;;;9.02;94.33;101597.95;2917028;81;21100;-69
2021/12/16 05:28:58;;;;;;;28.07;20.15;;;;;;;9.00;94.60;101594.06;2917036;81;20998;-70
2021/12/16 05:33:00;;;;;;;23.52;16.60;;;;;;;8.96;94.91;101597.83;2916834;81;21034;-70
2021/12/16 05:37:04;;;;;;;26.60;17.35;;;;;;;8.99;95.29;101599.83;2916747;81;20963;-70
2021/12/16 05:41:10;;;;;;;27.45;18.40;;;;;;;8.95;95.68;101594.31;2916668;81;21057;-69
2021/12/16 05:45:12;;;;;;;26.67;18.03;;;;;;;8.90;96.32;101592.84;2917178;81;21045;-70
2021/12/16 05:49:14;;;;;;;27.98;18.65;;;;;;;8.89;96.68;101596.43;2916860;81;20939;-71
2021/12/16 05:53:17;;;;;;;26.97;19.57;;;;;;;8.87;97.04;101603.16;2916993;81;21037;-70
2021/12/16 05:57:18;;;;;;;24.20;17.90;;;;;;;8.90;97.01;101606.10;2917040;81;21030;-71
2021/12/16 06:01:25;;;;;;;24.43;18.77;;;;;;;8.91;97.06;101601.18;2918588;80;21049;-70
2021/12/16 06:05:27;;;;;;;28.02;20.85;;;;;;;8.90;96.96;101604.78;2922660;81;21045;-71
2021/12/16 06:09:28;;;;;;;30.43;22.15;;;;;;;8.88;97.07;101605.33;2922581;81;21013;-70
2021/12/16 06:13:34;;;;;;;26.20;18.87;;;;;;;8.88;96.95;101607.53;2922767;81;21076;-70
2021/12/16 06:29:46;;;;;;;28.65;20.10;;;;;;;8.91;97.00;101617.10;2918957;81;21076;-71
2021/12/16 06:33:48;;;;;;;29.72;20.57;;;;;;;8.89;97.34;101611.89;2922754;81;21033;-70
2021/12/16 06:37:50;;;;;;;39.08;21.87;;;;;;;8.87;97.70;101616.44;2922478;81;21064;-71
2021/12/16 06:41:52;;;;;;;30.23;20.37;;;;;;;8.88;97.74;101618.14;2922389;81;21314;-70
2021/12/16 06:45:55;;;;;;;28.05;21.10;;;;;;;8.82;97.85;101621.11;2922567;81;20977;-70
2021/12/16 06:49:57;;;;;;;36.77;24.40;;;;;;;8.76;98.66;101630.27;2922220;81;21582;-70
2021/12/16 06:54:05;;;;;;;28.80;19.98;;;;;;;8.78;99.20;101624.87;2922479;81;22286;-70
2021/12/16 06:58:13;;;;;;;29.85;21.45;;;;;;;8.71;99.99;101626.53;2921663;81;21025;-70
2021/12/16 07:02:13;;;;;;;38.65;22.35;;;;;;;8.67;100.00;101624.11;2918294;81;21058;-72
2021/12/16 07:06:10;;;;;;;37.67;20.55;;;;;;;8.70;100.00;101628.80;2915993;81;21014;-72
2021/12/16 07:10:13;;;;;;;34.33;22.07;;;;;;;8.66;100.00;101635.20;2916971;81;21595;-71
2021/12/16 07:14:16;;;;;;;29.15;21.10;;;;;;;8.67;100.00;101640.89;2917127;81;21134;-71
2021/12/16 07:18:18;;;;;;;27.50;20.55;;;;;;;8.63;100.00;101631.36;2916980;81;21084;-70
2021/12/16 07:22:19;;;;;;;40.60;22.98;;;;;;;8.65;100.00;101634.81;2916974;81;21018;-70
2021/12/16 07:26:20;;;;;;;27.70;20.37;;;;;;;8.64;100.00;101629.09;2917172;81;21009;-70
2021/12/16 07:30:23;;;;;;;27.35;18.57;;;;;;;8.61;100.00;101620.46;2917109;81;21072;-72
2021/12/16 07:34:25;;;;;;;31.00;19.82;;;;;;;8.66;100.00;101628.57;2917128;81;21029;-72
2021/12/16 07:38:27;;;;;;;28.55;18.45;;;;;;;8.62;100.00;101628.31;2917078;81;21009;-70
2021/12/16 07:42:38;;;;;;;21.10;18.15;;;;;;;8.66;100.00;101627.25;2916813;81;21006;-71
2021/12/16 07:46:31;;;;;;;28.87;17.00;;;;;;;8.69;100.00;101630.19;2915451;81;21035;-71
2021/12/16 07:50:33;;;;;;;28.95;19.77;;;;;;;8.65;100.00;101640.58;2916871;81;21028;-70
2021/12/16 07:54:35;;;;;;;24.35;17.85;;;;;;;8.68;100.00;101641.28;2916959;81;21485;-70
2021/12/16 07:58:37;;;;;;;29.27;16.15;;;;;;;8.63;100.00;101639.31;2916465;81;21438;-71
2021/12/16 08:02:39;;;;;;;23.05;15.30;;;;;;;8.66;100.00;101646.27;2916462;81;21026;-71
2021/12/16 08:06:40;;;;;;;19.35;13.95;;;;;;;8.70;100.00;101656.64;2916842;81;21018;-71
2021/12/16 08:10:42;;;;;;;21.25;14.63;;;;;;;8.72;100.00;101657.88;2916443;81;21037;-71
2021/12/16 08:14:45;;;;;;;22.45;14.35;;;;;;;8.74;100.00;101657.81;2916642;81;21052;-70
2021/12/16 08:18:47;;;;;;;17.67;13.22;;;;;;;8.67;100.00;101642.22;2916774;81;21017;-69
2021/12/16 08:22:51;;;;;;;17.60;13.70;;;;;;;8.67;100.00;101642.22;2917269;81;20941;-70
2021/12/16 08:26:54;;;;;;;17.17;11.10;;;;;;;8.66;100.00;101644.48;2917090;81;21045;-71
2021/12/16 08:30:56;;;;;;;17.55;12.28;;;;;;;8.59;100.00;101663.45;2917001;81;20994;-71
2021/12/16 08:34:58;;;;;;;15.83;10.58;;;;;;;8.64;100.00;101663.58;2916898;81;21506;-71
2021/12/16 08:39:07;;;;;;;13.00;9.88;;;;;;;8.50;100.00;101664.78;2917155;81;20978;-70
2021/12/16 08:43:10;;;;;;;10.38;7.70;;;;;;;8.51;100.00;101675.77;2917142;81;21462;-70
2021/12/16 08:47:16;;;;;;;13.80;10.25;;;;;;;8.55;100.00;101664.06;2917169;81;21050;-70
2021/12/16 08:51:23;;;;;;;13.03;9.90;;;;;;;8.54;100.00;101662.35;2917482;81;21098;-70
2021/12/16 08:55:26;;;;;;;11.70;9.15;;;;;;;8.61;100.00;101669.05;2916901;81;20985;-71
2021/12/16 08:59:28;;;;;;;12.25;9.05;;;;;;;8.65;100.00;101673.73;2917035;81;21049;-69
2021/12/16 09:16:05;;;;;;;9.75;6.92;;;;;;;8.73;100.00;101683.47;3036578;77;22734;-71
2021/12/16 09:20:11;;;;;;;9.20;7.35;;;;;;;8.67;100.00;101676.70;2969565;80;21074;-73
2021/12/16 09:37:31;;;;;;;10.90;7.40;;;;;;;8.91;100.00;101704.22;2994674;78;28054;-71
2021/12/16 09:41:33;;;;;;;8.33;6.83;;;;;;;9.00;100.00;101692.27;2978231;80;20975;-71
2021/12/16 09:45:35;;;;;;;11.53;9.75;;;;;;;8.90;100.00;101719.76;2978656;80;20966;-74
2021/12/16 09:49:38;;;;;;;11.93;8.50;;;;;;;8.94;100.00;101723.09;2978161;80;21037;-69
2021/12/16 09:53:40;;;;;;;10.28;9.08;;;;;;;8.96;100.00;101726.55;2977349;79;21112;-69
2021/12/16 09:57:41;;;;;;;10.78;8.78;;;;;;;8.97;100.00;101719.81;2978299;80;20989;-72
2021/12/16 10:01:47;;;;;;;15.93;10.30;;;;;;;8.91;100.00;101712.64;2978140;80;21006;-71
2021/12/16 10:05:49;;;;;;;14.05;9.98;;;;;;;8.85;100.00;101717.82;2978170;79;21041;-71
2021/12/16 10:09:54;;;;;;;12.70;10.95;;;;;;;8.82;100.00;101715.30;2978290;79;21021;-72
2021/12/16 10:18:17;;;;;;;19.00;13.80;;;;;;;8.76;100.00;101718.28;2822094;83;21046;-71
2021/12/16 10:22:33;;;;;;;13.25;11.57;;;;;;;8.76;100.00;101719.60;2919656;80;21086;-69
2021/12/16 10:26:35;;;;;;;19.15;13.68;;;;;;;8.74;100.00;101724.98;2978166;80;20986;-70
2021/12/16 10:30:42;;;;;;;11.88;9.58;;;;;;;8.74;100.00;101716.17;2978359;80;21061;-70
2021/12/16 10:34:57;;;;;;;16.37;12.40;;;;;;;8.67;100.00;101701.91;2974722;80;21002;-72
2021/12/16 10:39:19;;;;;;;14.38;12.43;;;;;;;8.70;100.00;101708.83;2964290;80;21022;-70
2021/12/16 10:43:34;;;;;;;15.13;11.97;;;;;;;8.73;100.00;101693.23;2964496;80;21014;-72
2021/12/16 10:47:36;;;;;;;15.63;10.82;;;;;;;8.77;100.00;101693.01;2960809;80;20999;-71
2021/12/16 10:51:43;;;;;;;13.00;11.35;;;;;;;8.78;100.00;101689.87;2963458;80;21022;-69
2021/12/16 10:56:00;;;;;;;17.37;11.45;;;;;;;8.83;100.00;101692.68;2962478;80;20987;-70
2021/12/16 11:00:10;;;;;;;16.80;11.93;;;;;;;8.83;100.00;101696.66;2963380;80;21053;-71
2021/12/16 11:04:26;;;;;;;15.65;12.18;;;;;;;8.80;100.00;101717.17;2963003;80;21019;-72
2021/12/16 11:08:28;;;;;;;14.63;12.53;;;;;;;8.87;100.00;101729.21;2950898;79;21034;-70
2021/12/16 11:12:55;;;;;;;15.88;13.10;;;;;;;8.88;100.00;101724.74;2963361;80;20955;-70
2021/12/16 11:16:59;;;;;;;;;;;;;;;8.97;100.00;101733.09;2965880;80;21316;-72
2021/12/16 11:21:06;;;;;;;31.85;23.10;;;;;;;8.90;100.00;101736.14;2963461;80;20096;-70
2021/12/16 11:25:18;;;;;;;14.80;11.38;;;;;;;8.84;100.00;101742.61;2852261;82;21042;-72
2021/12/16 11:29:22;;;;;;;15.28;11.93;;;;;;;8.88;100.00;101749.50;2960971;80;20999;-71
2021/12/16 11:33:39;;;;;;;14.50;11.45;;;;;;;8.92;100.00;101736.45;2963342;80;21062;-71
2021/12/16 11:37:48;;;;;;;17.45;13.30;;;;;;;8.96;100.00;101735.35;2968131;80;21058;-70
2021/12/16 11:41:59;;;;;;;14.20;12.70;;;;;;;9.03;100.00;101736.34;2968669;80;21330;-71
2021/12/16 11:46:01;;;;;;;20.95;15.35;;;;;;;9.05;100.00;101737.16;2968676;80;21049;-70
2021/12/16 11:50:06;;;;;;;19.35;12.58;;;;;;;9.02;100.00;101735.96;2968886;80;21034;-69
2021/12/16 11:54:25;;;;;;;15.28;10.68;;;;;;;8.99;100.00;101732.53;2969113;80;21128;-71
2021/12/16 11:58:31;;;;;;;14.20;9.33;;;;;;;8.97;100.00;101723.80;2968938;80;21051;-70
2021/12/16 12:02:37;;;;;;;13.15;10.08;;;;;;;9.03;100.00;101713.79;2969133;80;20979;-72
2021/12/16 12:06:42;;;;;;;16.17;11.95;;;;;;;9.02;100.00;101737.29;2969011;80;21307;-70
2021/12/16 12:10:53;;;;;;;32.33;21.48;;;;;;;9.01;100.00;101741.76;2969050;80;20967;-71
2021/12/16 12:15:00;;;;;;;18.17;14.07;;;;;;;8.95;100.00;101734.97;2968903;80;21237;-70
2021/12/16 12:19:22;;;;;;;18.20;12.98;;;;;;;9.13;100.00;101738.44;2968208;80;20971;-71
2021/12/16 12:23:24;;;;;;;17.57;14.70;;;;;;;9.14;100.00;101728.24;2969134;80;21024;-71
2021/12/16 12:27:27;;;;;;;19.37;10.38;;;;;;;9.12;100.00;101721.28;2968718;80;21567;-69
2021/12/16 12:31:34;;;;;;;15.08;9.90;;;;;;;9.11;100.00;101726.20;2968815;80;21041;-71
2021/12/16 12:35:35;;;;;;;13.72;10.50;;;;;;;9.05;100.00;101719.91;2966814;80;21018;-71
2021/12/16 12:39:42;;;;;;;14.20;11.20;;;;;;;9.13;100.00;101719.02;2963491;80;21257;-70
2021/12/16 12:43:44;;;;;;;13.85;11.22;;;;;;;9.12;100.00;101723.94;2963179;80;21058;-70
2021/12/16 12:47:51;;;;;;;19.82;14.13;;;;;;;9.06;100.00;101721.62;2963021;80;21038;-70
2021/12/16 12:52:10;;;;;;;22.80;15.63;;;;;;;9.07;100.00;101720.68;2963079;80;21030;-72
2021/12/16 12:56:19;;;;;;;16.35;11.93;;;;;;;9.00;100.00;101714.83;2963117;80;21026;-69
2021/12/16 13:00:32;;;;;;;18.25;12.30;;;;;;;8.92;100.00;101712.57;2963196;80;21003;-70
2021/12/16 13:04:51;;;;;;;22.30;13.70;;;;;;;8.92;100.00;101715.22;2962984;80;21042;-70
2021/12/16 13:08:53;;;;;;;20.97;13.10;;;;;;;8.94;100.00;101712.02;2963274;80;21573;-71
2021/12/16 13:13:30;;;;;;;22.73;18.70;;;;;;;8.90;100.00;101720.21;2963076;80;20971;-70
2021/12/16 13:23:22;;;;;;;23.45;15.90;;;;;;;8.98;100.00;101732.63;2958816;80;21003;-69
2021/12/16 13:26:28;;;;;;;24.18;17.87;;;;;;;8.90;100.00;101754.26;2962987;80;21054;-69
2021/12/16 13:30:30;;;;;;;28.42;13.58;;;;;;;8.96;100.00;101760.56;2961136;80;21537;-69
2021/12/16 13:35:12;;;;;;;19.00;13.90;;;;;;;8.96;100.00;101760.56;2963158;80;20978;-69
2021/12/16 13:39:16;;;;;;;50.25;34.63;;;;;;;8.92;100.00;101769.63;2970817;80;21046;-70
2021/12/16 13:43:26;;;;;;;44.15;32.17;;;;;;;8.94;100.00;101776.17;2972466;80;20975;-72
2021/12/16 13:47:44;;;;;;;18.35;14.00;;;;;;;8.88;100.00;101777.37;2972543;80;21030;-71
2021/12/16 14:05:16;;;;;;;20.65;12.15;;;;;;;8.90;100.00;101770.63;2972147;80;20999;-70
2021/12/16 14:09:18;;;;;;;15.60;11.08;;;;;;;8.94;100.00;101770.41;2956466;80;21090;-74
2021/12/16 14:18:09;;;;;;;16.17;11.03;;;;;;;8.94;100.00;101765.55;2946456;80;21041;-75
2021/12/16 14:35:20;;;;;;;16.50;11.40;;;;;;;8.97;100.00;101784.00;2968420;80;21097;-74
2021/12/16 14:44:07;;;;;;;15.45;11.85;;;;;;;8.92;100.00;101781.57;2961486;80;21062;-71
2021/12/16 14:52:28;;;;;;;18.62;12.58;;;;;;;9.00;100.00;101812.55;2960203;80;21026;-73
2021/12/16 14:56:36;;;;;;;19.00;13.58;;;;;;;8.99;100.00;101834.72;2848598;82;21035;-73
2021/12/16 15:00:48;;;;;;;16.00;11.08;;;;;;;8.94;100.00;101842.52;2959710;80;21521;-75
2021/12/16 15:04:50;;;;;;;13.03;8.95;;;;;;;8.95;100.00;101846.44;2959965;80;21014;-75
2021/12/16 15:13:21;;;;;;;13.50;9.28;;;;;;;8.93;100.00;101857.59;2960475;80;20995;-75
2021/12/16 15:42:57;;;;;;;23.83;16.23;;;;;;;8.48;100.00;101871.66;2959615;80;21010;-70
2021/12/16 15:46:58;;;;;;;19.05;12.55;;;;;;;8.60;100.00;101870.25;2959396;80;21380;-73
2021/12/16 15:51:09;;;;;;;16.60;11.33;;;;;;;8.59;99.50;101863.22;2959364;80;21069;-74
2021/12/16 15:55:28;;;;;;;10.40;8.18;;;;;;;8.54;98.66;101848.85;2959116;80;21455;-75
2021/12/16 15:59:30;;;;;;;10.40;7.15;;;;;;;8.48;97.44;101848.28;2959434;80;21046;-75
2021/12/16 16:03:32;;;;;;;11.63;7.85;;;;;;;8.30;97.19;101864.13;2959180;80;21030;-75
2021/12/16 16:07:36;;;;;;;8.88;7.95;;;;;;;8.23;97.02;101850.75;2958576;80;21007;-74
2021/12/16 16:11:46;;;;;;;11.80;9.10;;;;;;;8.11;97.11;101857.03;2958760;80;20979;-75
2021/12/16 16:15:51;;;;;;;15.55;10.53;;;;;;;7.96;97.44;101871.86;2959218;80;21038;-74
2021/12/16 16:19:55;;;;;;;16.40;10.45;;;;;;;7.88;97.93;101875.78;2959492;80;21080;-71
2021/12/16 16:24:05;;;;;;;16.93;12.75;;;;;;;7.82;98.40;101884.37;2959509;80;21014;-70
2021/12/16 16:28:08;;;;;;;17.82;12.30;;;;;;;7.80;98.17;101891.54;2960869;80;21045;-75
2021/12/16 16:32:11;;;;;;;23.02;13.53;;;;;;;7.80;98.45;101872.15;2962030;80;21043;-73
2021/12/16 16:36:17;;;;;;;27.27;13.80;;;;;;;7.74;97.94;101875.92;2962025;80;21034;-77
2021/12/16 16:40:19;;;;;;;15.32;10.95;;;;;;;7.69;97.49;101885.88;2961777;80;21034;-75
2021/12/16 16:44:24;;;;;;;17.48;12.15;;;;;;;7.54;97.55;101888.26;2959699;80;21096;-78
2021/12/16 16:48:44;;;;;;;22.05;14.33;;;;;;;7.43;97.80;101889.17;2960644;80;21014;-77
2021/12/16 16:52:43;;;;;;;19.30;14.33;;;;;;;7.29;98.45;101901.68;2957182;80;21022;-76
2021/12/16 16:57:05;;;;;;;21.37;12.30;;;;;;;7.16;99.29;101910.60;2944450;80;21087;-75
2021/12/16 17:01:07;;;;;;;15.75;11.08;;;;;;;7.13;98.71;101897.50;2940809;80;21008;-78
2021/12/16 17:05:26;;;;;;;15.03;12.03;;;;;;;7.07;98.23;101897.73;2958377;80;21552;-74
2021/12/16 17:09:36;;;;;;;13.32;8.53;;;;;;;7.02;98.51;101889.12;2955511;80;21040;-77
2021/12/16 17:17:53;;;;;;;14.67;9.13;;;;;;;6.93;98.96;101885.08;2951390;80;21056;-76
2021/12/16 17:21:55;;;;;;;17.17;9.65;;;;;;;6.95;98.85;101883.23;2926343;80;21015;-77
2021/12/16 17:25:57;;;;;;;13.45;9.33;;;;;;;6.91;98.57;101899.71;2936637;80;21023;-77
2021/12/16 17:30:04;;;;;;;11.28;9.30;;;;;;;6.79;98.86;101900.19;2958675;80;21081;-79
2021/12/16 17:34:23;;;;;;;14.18;8.33;;;;;;;6.78;98.68;101907.73;2955715;80;21028;-75
2021/12/16 17:38:28;;;;;;;15.03;9.38;;;;;;;6.76;99.00;101913.55;2939152;79;21046;-80
2021/12/16 17:42:38;;;;;;;14.38;9.33;;;;;;;6.74;98.97;101915.39;2931368;80;21099;-77
2021/12/16 17:46:43;;;;;;;16.20;10.15;;;;;;;6.69;99.20;101893.97;2954385;80;21020;-77
2021/12/16 17:50:52;;;;;;;13.28;7.75;;;;;;;6.76;99.00;101902.48;2957761;80;20977;-75
2021/12/16 17:54:59;;;;;;;9.65;7.72;;;;;;;6.77;98.63;101904.69;2936540;80;21017;-77
2021/12/16 17:59:05;;;;;;;13.00;9.53;;;;;;;6.68;99.04;101918.69;2950126;80;21571;-80
2021/12/16 18:03:14;;;;;;;15.60;9.75;;;;;;;6.75;99.20;101929.02;2956039;80;21016;-78
2021/12/16 18:07:16;;;;;;;15.72;10.50;;;;;;;6.71;99.31;101929.59;2947414;80;21004;-80
2021/12/16 18:11:23;;;;;;;14.45;10.10;;;;;;;6.79;99.84;101933.25;2958108;80;21548;-75
2021/12/16 18:15:29;;;;;;;15.15;11.00;;;;;;;6.81;99.56;101923.03;2948810;80;21064;-79
2021/12/16 18:19:57;;;;;;;13.83;9.43;;;;;;;6.83;99.87;101937.49;2937798;80;21016;-77
2021/12/16 18:24:00;;;;;;;15.03;11.35;;;;;;;6.90;99.79;101930.18;2924664;80;20993;-76
2021/12/16 18:28:16;;;;;;;16.82;11.80;;;;;;;7.04;100.00;101928.30;2941744;80;20983;-79
2021/12/16 18:32:31;;;;;;;13.13;10.33;;;;;;;7.21;100.00;101930.27;2959791;80;21067;-78
2021/12/16 18:36:36;;;;;;;12.37;9.78;;;;;;;7.33;100.00;101929.73;2962224;80;21750;-78
2021/12/16 18:40:40;;;;;;;11.70;9.25;;;;;;;7.35;99.31;101927.04;2970202;80;21067;-74
2021/12/16 18:44:53;;;;;;;15.55;10.23;;;;;;;7.37;98.96;101926.52;2970010;80;21040;-79
2021/12/16 18:49:36;;;;;;;14.18;10.18;;;;;;;7.41;98.95;101925.45;2963499;80;20993;-80
2021/12/16 18:57:17;;;;;;;10.43;8.73;;;;;;;7.36;99.41;101942.00;2969081;80;21040;-82
2021/12/16 19:01:33;;;;;;;16.07;11.35;;;;;;;7.38;99.47;101942.79;2968757;80;21547;-77
2021/12/16 19:05:37;;;;;;;15.30;9.73;;;;;;;7.46;99.23;101944.64;2971094;80;21041;-79
2021/12/16 19:09:40;;;;;;;13.75;9.70;;;;;;;7.47;98.99;101948.16;2971173;80;20971;-74
2021/12/16 19:13:45;;;;;;;16.32;11.15;;;;;;;7.55;99.13;101948.69;2971588;80;21010;-75
2021/12/16 19:17:48;;;;;;;13.68;9.93;;;;;;;7.61;98.78;101954.19;2971001;80;21053;-75
2021/12/16 19:21:49;;;;;;;16.50;9.38;;;;;;;7.58;98.64;101966.64;2971120;80;21006;-71
2021/12/16 19:25:54;;;;;;;18.87;10.60;;;;;;;7.56;98.17;101971.59;2970654;80;20976;-77
2021/12/16 19:29:57;;;;;;;16.70;10.85;;;;;;;7.55;98.08;101969.42;2971153;80;21008;-73
2021/12/16 19:34:05;;;;;;;21.70;12.63;;;;;;;7.55;97.91;101990.61;2971546;80;21095;-75
2021/12/16 19:38:09;;;;;;;24.43;13.35;;;;;;;7.55;97.96;101986.64;2966157;80;21020;-78
2021/12/16 19:42:14;;;;;;;14.83;12.85;;;;;;;7.49;97.89;102002.80;2961257;80;21028;-76
2021/12/16 19:46:15;;;;;;;19.65;11.80;;;;;;;7.49;97.65;102011.19;2960944;80;21048;-78
2021/12/16 19:50:21;;;;;;;12.93;10.45;;;;;;;7.41;97.41;101988.99;2960922;80;21568;-75
2021/12/16 19:54:22;;;;;;;13.10;9.93;;;;;;;7.37;97.23;101999.31;2961224;80;21074;-78
2021/12/16 19:58:25;;;;;;;15.35;11.30;;;;;;;7.38;96.76;101990.45;2941564;79;21032;-79
2021/12/16 20:02:28;;;;;;;18.57;9.70;;;;;;;7.32;96.60;102001.30;2942196;80;21020;-77
2021/12/16 20:06:32;;;;;;;12.15;9.13;;;;;;;7.18;97.04;102000.06;2952101;80;21107;-74
2021/12/16 20:10:38;;;;;;;11.43;9.50;;;;;;;7.15;96.90;101993.09;2960356;80;21024;-74
2021/12/16 20:14:42;;;;;;;13.28;10.03;;;;;;;7.07;96.83;101989.91;2959750;80;21798;-78
2021/12/16 20:18:48;;;;;;;15.53;9.08;;;;;;;7.05;96.87;101994.40;2959980;80;21051;-77
2021/12/16 20:22:50;;;;;;;13.20;7.58;;;;;;;7.00;97.29;101983.14;2960965;80;21004;-71
2021/12/16 20:27:06;;;;;;;12.25;7.22;;;;;;;6.95;97.06;101979.34;2961880;80;21047;-73
2021/12/16 20:31:21;;;;;;;18.05;8.25;;;;;;;6.90;97.13;101996.31;2960846;80;21034;-76
2021/12/16 20:35:34;;;;;;;18.45;9.23;;;;;;;6.84;97.31;102007.55;2957458;80;21101;-74
2021/12/16 20:39:50;;;;;;;20.12;9.80;;;;;;;6.81;96.96;101994.89;2956858;80;21034;-75
2021/12/16 20:43:58;;;;;;;23.40;9.50;;;;;;;6.73;96.93;102002.27;2958274;80;21524;-76
2021/12/16 20:48:00;;;;;;;12.30;7.72;;;;;;;6.66;97.13;101997.19;2959089;80;21004;-77
2021/12/16 20:52:13;;;;;;;18.17;7.62;;;;;;;6.58;97.66;102008.53;2909295;80;21029;-77
2021/12/16 20:56:15;;;;;;;16.23;10.25;;;;;;;6.57;98.34;102000.20;2970065;80;21057;-75
2021/12/16 21:00:21;;;;;;;20.32;11.03;;;;;;;6.55;98.62;102015.27;2963076;80;21074;-77
2021/12/16 21:04:25;;;;;;;16.52;9.63;;;;;;;6.55;98.47;101994.95;2925619;80;21560;-77
2021/12/16 21:08:28;;;;;;;13.50;8.78;;;;;;;6.55;98.35;102006.01;2918305;80;21019;-78
2021/12/16 21:12:30;;;;;;;13.60;7.78;;;;;;;6.54;98.31;102001.16;2944607;80;21020;-77
2021/12/16 21:16:32;;;;;;;21.90;9.55;;;;;;;6.47;98.77;101997.04;2898173;82;21032;-76
2021/12/16 21:20:34;;;;;;;18.17;8.85;;;;;;;6.47;98.64;102001.45;2898016;82;21048;-73
2021/12/16 21:24:36;;;;;;;12.10;8.03;;;;;;;6.52;98.85;101997.72;2913987;80;20990;-77
2021/12/16 21:28:40;;;;;;;18.87;9.78;;;;;;;6.57;99.34;101994.91;2959052;80;21004;-77
2021/12/16 21:32:45;;;;;;;20.88;9.93;;;;;;;6.64;99.68;101996.39;2958869;80;21027;-77
2021/12/16 21:36:47;;;;;;;18.07;9.95;;;;;;;6.78;99.14;102003.83;2959992;80;20992;-77
2021/12/16 21:40:50;;;;;;;17.00;9.68;;;;;;;6.80;98.14;101998.45;2969167;80;21015;-75
2021/12/16 21:44:52;;;;;;;21.12;9.73;;;;;;;6.88;97.96;101991.11;2969087;80;21513;-75
2021/12/16 21:48:55;;;;;;;14.38;10.13;;;;;;;6.84;98.02;101985.06;2968543;80;21066;-75
2021/12/16 21:52:56;;;;;;;17.87;9.83;;;;;;;6.85;97.81;101975.33;2968801;80;21008;-76
2021/12/16 21:56:59;;;;;;;17.52;10.08;;;;;;;6.83;97.82;101959.98;2968471;80;21040;-77
2021/12/16 22:01:01;;;;;;;13.32;7.25;;;;;;;6.85;97.25;101977.97;2968303;80;21036;-75
2021/12/16 22:05:05;;;;;;;17.05;9.53;;;;;;;6.74;97.07;101977.55;2968494;80;21004;-76
2021/12/16 22:09:09;;;;;;;15.83;10.40;;;;;;;6.74;96.98;101957.70;2968333;80;21047;-78
2021/12/16 22:13:11;;;;;;;17.75;10.72;;;;;;;6.67;97.30;101955.28;2968668;80;21028;-75
2021/12/16 22:17:13;;;;;;;17.90;11.03;;;;;;;6.65;96.77;101970.34;2968109;80;21024;-75
2021/12/16 22:21:23;;;;;;;19.55;8.88;;;;;;;6.58;97.42;101963.58;2967970;80;21431;-77
2021/12/16 22:25:25;;;;;;;20.97;9.15;;;;;;;6.62;97.24;101962.53;2968007;80;20980;-77
2021/12/16 22:29:27;;;;;;;14.55;8.13;;;;;;;6.61;97.42;101950.72;2967542;80;21012;-74
2021/12/16 22:33:31;;;;;;;15.55;8.55;;;;;;;6.59;97.19;101952.56;2955637;80;21069;-77
2021/12/16 22:37:34;;;;;;;17.07;8.98;;;;;;;6.61;97.36;101968.75;2902154;82;21093;-78
2021/12/16 22:41:37;;;;;;;23.85;8.88;;;;;;;6.70;97.29;101965.77;2902237;82;21036;-78
2021/12/16 22:45:40;;;;;;;13.55;7.15;;;;;;;6.70;97.53;101947.25;2903030;82;21580;-78
2021/12/16 22:49:45;;;;;;;18.57;7.03;;;;;;;6.76;97.39;101939.52;2933966;80;20996;-79
2021/12/16 22:53:48;;;;;;;23.40;8.73;;;;;;;6.81;97.29;101939.34;2968515;80;20972;-79
2021/12/16 22:57:50;;;;;;;15.10;9.93;;;;;;;6.85;96.98;101931.68;2968220;80;21579;-76
2021/12/16 23:01:57;;;;;;;10.13;6.25;;;;;;;6.91;96.77;101938.07;2968298;80;21012;-78
2021/12/16 23:05:59;;;;;;;15.65;7.58;;;;;;;6.91;96.70;101932.78;2968354;80;21067;-77
2021/12/16 23:10:09;;;;;;;16.52;7.12;;;;;;;7.00;96.35;101953.56;2968475;80;21068;-76